createdAt,value
2018-06-10T00:00:29.589Z,69.04
2018-06-10T00:02:59.234Z,69.16
2018-06-10T00:05:28.804Z,69.95
2018-06-10T00:07:58.902Z,70.08
2018-06-10T00:10:29.447Z,70.31
2018-06-10T00:12:59.378Z,69.87
2018-06-10T00:15:28.792Z,69.87
2018-06-10T00:17:58.479Z,70.54
2018-06-10T00:20:28.097Z,69.64
2018-06-10T00:22:57.718Z,70.21
2018-06-10T00:25:27.573Z,69.81
2018-06-10T00:28:03.824Z,70.79
2018-06-10T00:30:33.375Z,70.10
2018-06-10T00:33:02.946Z,70.44
2018-06-10T00:35:32.586Z,70.49
2018-06-10T00:38:02.751Z,70.07
2018-06-10T00:40:32.398Z,70.48
2018-06-10T00:43:01.963Z,69.63
2018-06-10T00:45:31.512Z,68.78
2018-06-10T00:48:01.394Z,68.02
2018-06-10T00:50:31.281Z,67.67
2018-06-10T00:53:01.068Z,66.98
2018-06-10T00:55:30.536Z,67.73
2018-06-10T00:58:00.371Z,67.58
2018-06-10T01:00:30.259Z,68.03
2018-06-10T01:02:59.825Z,69.18
2018-06-10T01:05:29.704Z,69.26
2018-06-10T01:07:59.901Z,70.10
2018-06-10T01:10:29.918Z,70.98
2018-06-10T01:12:59.535Z,70.49
2018-06-10T01:15:30.671Z,70.63
2018-06-10T01:18:00.228Z,70.83
2018-06-10T01:20:29.741Z,71.87
2018-06-10T01:22:59.287Z,72.35
2018-06-10T01:25:28.821Z,73.09
2018-06-10T01:27:58.682Z,74.31
2018-06-10T01:30:29.338Z,74.10
2018-06-10T01:32:58.848Z,74.12
2018-06-10T01:35:28.509Z,73.85
2018-06-10T01:37:58.419Z,74.57
2018-06-10T01:40:27.866Z,73.86
2018-06-10T01:42:57.376Z,74.22
2018-06-10T03:07:26.277Z,81.72
2018-06-10T03:09:55.771Z,81.12
2018-06-10T03:12:25.435Z,80.64
2018-06-10T03:14:54.868Z,81.10
2018-06-10T03:17:24.390Z,79.85
2018-06-10T03:19:53.778Z,79.78
2018-06-10T03:22:23.296Z,80.18
2018-06-10T03:24:52.609Z,79.87
2018-06-10T03:27:23.037Z,80.01
2018-06-10T03:29:53.040Z,79.71
2018-06-10T03:32:22.689Z,79.68
2018-06-10T03:34:52.014Z,80.26
2018-06-10T03:37:21.454Z,80.19
2018-06-10T03:39:50.711Z,80.06
2018-06-10T03:42:20.134Z,79.30
2018-06-10T03:44:49.545Z,79.75
2018-06-10T03:47:18.920Z,80.20
2018-06-10T03:49:48.325Z,80.52
2018-06-10T03:52:17.718Z,79.69
2018-06-10T03:54:46.988Z,80.16
2018-06-10T03:57:16.299Z,79.14
2018-06-10T03:59:45.561Z,78.81
2018-06-10T04:02:14.818Z,78.92
2018-06-10T04:04:44.162Z,79.50
2018-06-10T04:07:13.545Z,78.26
2018-06-10T04:09:42.845Z,77.99
2018-06-10T04:12:12.082Z,77.85
2018-06-10T04:14:41.755Z,77.98
2018-06-10T04:17:11.031Z,77.33
2018-06-10T04:19:40.328Z,76.37
2018-06-10T04:22:09.921Z,76.72
2018-06-10T04:24:39.237Z,76.42
2018-06-10T04:27:08.616Z,78.13
2018-06-10T04:29:38.050Z,78.05
2018-06-10T04:32:07.348Z,77.73
2018-06-10T04:34:36.822Z,77.01
2018-06-10T04:37:06.285Z,75.99
2018-06-10T04:39:35.862Z,76.36
2018-06-10T04:42:05.544Z,77.51
2018-06-10T04:44:34.995Z,79.14
2018-06-10T04:47:04.458Z,79.56
2018-06-10T04:49:33.811Z,79.88
2018-06-10T04:52:03.464Z,80.14
2018-06-10T04:54:32.982Z,81.49
2018-06-10T04:57:02.509Z,80.93
2018-06-10T04:59:31.910Z,80.78
2018-06-10T05:02:01.365Z,80.09
2018-06-10T05:04:31.059Z,80.30
2018-06-10T05:07:00.861Z,80.68
2018-06-10T05:09:30.263Z,80.76
2018-06-10T05:11:59.817Z,80.41
2018-06-10T05:14:29.662Z,80.42
2018-06-10T05:16:59.292Z,80.69
2018-06-10T05:19:29.308Z,80.66
2018-06-10T05:21:58.930Z,79.92
2018-06-10T05:24:28.365Z,79.68
2018-06-10T05:26:57.731Z,78.72
2018-06-10T05:29:27.558Z,77.53
2018-06-10T05:31:57.008Z,76.25
2018-06-10T05:34:27.254Z,75.43
2018-06-10T05:36:57.545Z,73.21
2018-06-10T05:39:27.927Z,71.34
2018-06-10T05:41:57.740Z,69.70
2018-06-10T05:44:27.403Z,68.79
2018-06-10T05:46:57.083Z,68.38
2018-06-10T05:49:27.200Z,66.96
2018-06-10T05:51:56.962Z,65.85
2018-06-10T05:54:26.349Z,65.79
2018-06-10T05:56:55.761Z,64.50
2018-06-10T05:59:25.986Z,65.10
2018-06-10T06:01:55.315Z,64.78
2018-06-10T06:04:24.680Z,64.36
2018-06-10T06:06:54.016Z,64.76
2018-06-10T06:09:23.450Z,64.31
2018-06-10T06:11:52.717Z,64.15
2018-06-10T06:14:22.030Z,64.51
2018-06-10T06:16:51.357Z,66.72
2018-06-10T06:19:20.606Z,66.74
2018-06-10T06:21:50.046Z,70.13
2018-06-10T06:24:19.329Z,69.83
2018-06-10T06:26:48.559Z,69.89
2018-06-10T06:29:18.094Z,68.73
2018-06-10T06:31:47.697Z,67.78
2018-06-10T06:34:16.941Z,66.05
2018-06-10T06:36:46.189Z,65.46
2018-06-10T06:39:15.602Z,65.64
2018-06-10T06:41:45.080Z,64.29
2018-06-10T06:44:14.345Z,60.96
2018-06-10T06:46:43.669Z,61.21
2018-06-10T06:49:12.940Z,61.15
2018-06-10T06:51:42.221Z,61.51
2018-06-10T06:54:11.479Z,61.82
2018-06-10T06:56:40.992Z,60.78
2018-06-10T06:59:10.368Z,61.39
2018-06-10T07:01:40.011Z,61.97
2018-06-10T07:04:09.238Z,60.76
2018-06-10T07:06:38.573Z,60.39
2018-06-10T07:09:08.369Z,59.54
2018-06-10T07:11:37.770Z,58.61
2018-06-10T07:14:07.391Z,58.25
2018-06-10T07:16:36.665Z,57.35
2018-06-10T07:19:06.013Z,58.41
2018-06-10T07:21:35.770Z,59.03
2018-06-10T07:24:05.386Z,58.57
2018-06-10T07:26:34.733Z,58.29
2018-06-10T07:29:04.414Z,58.09
2018-06-10T07:31:33.949Z,57.83
2018-06-10T07:34:03.558Z,58.02
2018-06-10T07:36:33.306Z,58.96
2018-06-10T07:39:03.057Z,57.97
2018-06-10T07:41:32.573Z,58.43
2018-06-10T07:44:02.190Z,58.27
2018-06-10T07:46:31.926Z,59.70
2018-06-10T07:49:01.813Z,59.29
2018-06-10T07:51:31.612Z,59.44
2018-06-10T07:54:01.024Z,60.11
2018-06-10T07:56:30.413Z,60.25
2018-06-10T07:59:00.157Z,59.96
2018-06-10T08:01:29.673Z,59.89
2018-06-10T08:03:59.823Z,59.81
2018-06-10T08:06:29.910Z,58.48
2018-06-10T08:08:59.589Z,58.22
2018-06-10T08:11:29.613Z,58.04
2018-06-10T08:13:59.613Z,58.75
2018-06-10T08:16:29.528Z,58.56
2018-06-10T08:19:02.789Z,59.13
2018-06-10T08:21:32.239Z,58.94
2018-06-10T08:24:02.027Z,59.47
2018-06-10T08:26:31.959Z,59.52
2018-06-10T08:29:01.785Z,60.12
2018-06-10T08:31:31.567Z,61.53
2018-06-10T08:34:01.870Z,60.31
2018-06-10T08:36:31.779Z,59.89
2018-06-10T08:39:01.901Z,59.25
2018-06-10T08:41:31.963Z,57.45
2018-06-10T08:44:03.162Z,56.18
2018-06-10T08:46:33.314Z,57.08
2018-06-10T08:49:04.512Z,57.43
2018-06-10T08:51:35.772Z,56.45
2018-06-10T08:54:05.534Z,57.92
2018-06-10T08:56:35.629Z,57.62
2018-06-10T08:59:05.150Z,57.34
2018-06-10T09:01:34.674Z,58.06
2018-06-10T09:04:04.205Z,58.67
2018-06-10T09:06:34.144Z,59.60
2018-06-10T09:09:04.852Z,61.14
2018-06-10T09:11:34.334Z,59.54
2018-06-10T09:14:04.404Z,62.38
2018-06-10T09:16:35.934Z,62.03
2018-06-10T09:19:05.991Z,62.38
2018-06-10T09:21:35.958Z,61.88
2018-06-10T09:24:05.650Z,62.19
2018-06-10T09:26:37.478Z,61.51
2018-06-10T09:29:06.956Z,61.54
2018-06-10T09:31:37.224Z,61.68
2018-06-10T09:34:07.966Z,62.13
2018-06-10T09:36:38.190Z,63.22
2018-06-10T09:39:09.202Z,63.68
2018-06-10T09:41:39.026Z,65.00
2018-06-10T09:44:08.543Z,65.40
2018-06-10T09:46:38.310Z,66.64
2018-06-10T09:49:07.737Z,69.21
2018-06-10T09:51:38.556Z,70.80
2018-06-10T09:54:08.207Z,72.68
2018-06-10T09:56:38.099Z,75.51
2018-06-10T09:59:07.777Z,74.49
2018-06-10T10:01:37.835Z,74.74
2018-06-10T10:04:07.325Z,74.03
2018-06-10T10:06:36.731Z,74.69
2018-06-10T10:09:08.048Z,74.23
2018-06-10T10:11:37.514Z,75.43
2018-06-10T10:14:07.211Z,76.77
2018-06-10T10:16:37.410Z,76.89
2018-06-10T10:19:06.837Z,75.78
2018-06-10T10:21:36.421Z,74.85
2018-06-10T10:24:06.297Z,74.98
2018-06-10T10:26:36.049Z,76.71
2018-06-10T10:29:06.576Z,76.04
2018-06-10T10:31:36.593Z,75.50
2018-06-10T10:34:05.975Z,75.63
2018-06-10T10:36:35.326Z,75.05
2018-06-10T10:39:07.265Z,76.05
2018-06-10T10:41:36.766Z,75.41
2018-06-10T10:44:06.439Z,75.47
2018-06-10T10:46:35.812Z,75.19
2018-06-10T10:49:05.790Z,74.94
2018-06-10T10:51:35.945Z,75.61
2018-06-10T10:54:05.723Z,78.49
2018-06-10T10:56:35.537Z,78.72
2018-06-10T10:59:05.591Z,79.56
2018-06-10T11:01:35.416Z,79.10
2018-06-10T11:04:05.246Z,78.40
2018-06-10T11:06:36.117Z,76.83
2018-06-10T11:09:07.973Z,77.34
2018-06-10T11:11:38.005Z,77.79
2018-06-10T11:14:07.315Z,76.65
2018-06-10T11:16:36.812Z,74.62
2018-06-10T11:19:06.863Z,75.11
2018-06-10T11:21:36.366Z,76.04
2018-06-10T11:24:05.931Z,76.65
2018-06-10T11:26:35.625Z,74.84
2018-06-10T11:29:05.679Z,75.14
2018-06-10T11:31:35.302Z,75.57
2018-06-10T11:34:12.352Z,74.94
2018-06-10T11:36:43.096Z,76.08
2018-06-10T11:39:14.123Z,76.50
2018-06-10T11:41:43.920Z,76.54
2018-06-10T11:44:14.758Z,77.39
2018-06-10T11:46:45.418Z,77.52
2018-06-10T11:49:15.038Z,77.65
2018-06-10T11:51:44.768Z,77.86
2018-06-10T11:54:15.704Z,78.31
2018-06-10T11:56:45.230Z,78.42
2018-06-10T11:59:14.479Z,79.61
2018-06-10T12:01:44.380Z,81.29
2018-06-10T12:04:13.973Z,81.76
2018-06-10T12:06:43.227Z,82.29
2018-06-10T12:09:13.652Z,82.08
2018-06-10T12:11:43.183Z,81.85
2018-06-10T12:14:12.537Z,81.54
2018-06-10T12:16:42.658Z,78.30
2018-06-10T12:19:11.981Z,78.04
2018-06-10T12:21:41.427Z,76.14
2018-06-10T12:24:10.831Z,76.27
2018-06-10T12:26:40.561Z,76.28
2018-06-10T12:29:21.511Z,76.56
2018-06-10T12:31:52.301Z,76.98
2018-06-10T12:34:23.206Z,76.79
2018-06-10T12:36:56.392Z,76.19
2018-06-10T12:41:55.462Z,75.35
2018-06-10T12:44:25.608Z,75.10
2018-06-10T12:46:55.372Z,74.92
2018-06-10T12:49:25.921Z,75.04
2018-06-10T12:51:55.809Z,73.28
2018-06-10T12:54:25.402Z,74.13
2018-06-10T12:56:55.318Z,73.34
2018-06-10T12:59:25.990Z,74.82
2018-06-10T13:01:55.606Z,75.22
2018-06-10T13:04:25.216Z,73.45
2018-06-10T13:06:55.068Z,73.76
2018-06-10T13:09:24.590Z,74.17
2018-06-10T13:11:54.061Z,73.23
2018-06-10T13:14:23.481Z,71.46
2018-06-10T13:16:52.962Z,68.09
2018-06-10T13:19:23.630Z,67.94
2018-06-10T13:21:52.891Z,67.06
2018-06-10T13:24:22.242Z,66.81
2018-06-10T13:26:51.789Z,66.91
2018-06-10T13:29:21.045Z,66.75
2018-06-10T13:31:50.535Z,66.13
2018-06-10T13:34:20.463Z,63.55
2018-06-10T13:36:49.872Z,64.61
2018-06-10T13:39:19.365Z,65.14
2018-06-10T13:41:48.889Z,65.53
2018-06-10T13:44:18.281Z,65.97
2018-06-10T13:46:47.661Z,66.14
2018-06-10T13:49:17.372Z,66.93
2018-06-10T13:51:47.799Z,69.09
2018-06-10T13:54:17.281Z,68.68
2018-06-10T13:56:46.727Z,67.72
2018-06-10T13:59:16.114Z,66.73
2018-06-10T14:01:46.573Z,69.81
2018-06-10T14:04:15.945Z,70.93
2018-06-10T14:06:45.245Z,70.79
2018-06-10T14:09:14.550Z,70.17
2018-06-10T14:11:43.852Z,70.03
2018-06-10T14:14:13.350Z,66.52
2018-06-10T14:16:42.665Z,66.18
2018-06-10T14:19:12.069Z,67.40
2018-06-10T14:21:41.415Z,67.23
2018-06-10T14:24:10.793Z,65.92
2018-06-10T14:26:40.220Z,64.62
2018-06-10T14:29:09.770Z,64.05
2018-06-10T14:31:39.084Z,63.32
2018-06-10T14:36:54.155Z,68.46
2018-06-10T14:39:23.730Z,70.80
2018-06-10T14:41:54.016Z,70.70
2018-06-10T14:44:23.357Z,71.71
2018-06-10T14:46:52.828Z,72.97
2018-06-10T14:49:22.125Z,73.13
2018-06-10T14:51:51.529Z,73.39
2018-06-10T14:54:21.105Z,73.40
2018-06-10T14:56:50.512Z,72.92
2018-06-10T14:59:19.839Z,75.63
2018-06-10T15:01:49.724Z,74.33
2018-06-10T15:04:19.138Z,73.91
2018-06-10T15:06:48.637Z,72.95
2018-06-10T15:09:18.100Z,71.40
2018-06-10T15:11:47.500Z,69.73
2018-06-10T15:14:17.242Z,67.73
2018-06-10T15:16:47.508Z,66.42
2018-06-10T15:19:16.906Z,67.22
2018-06-10T15:21:46.388Z,67.37
2018-06-10T15:24:15.818Z,69.49
2018-06-10T15:26:45.205Z,68.51
2018-06-10T15:29:14.652Z,68.93
2018-06-10T15:31:44.027Z,68.10
2018-06-10T15:34:13.313Z,69.72
2018-06-10T15:36:43.026Z,71.45
2018-06-10T15:39:12.329Z,70.44
2018-06-10T15:41:41.852Z,71.62
2018-06-10T15:44:11.303Z,71.04
2018-06-10T15:46:40.687Z,72.60
2018-06-10T15:49:09.983Z,72.80
2018-06-10T15:51:39.801Z,72.77
2018-06-10T15:54:09.207Z,73.07
2018-06-10T15:56:38.732Z,72.66
2018-06-10T15:59:08.498Z,71.48
2018-06-10T16:01:38.003Z,71.04
2018-06-10T16:04:07.681Z,70.29
2018-06-10T16:06:37.475Z,71.23
2018-06-10T16:09:08.313Z,69.86
2018-06-10T16:11:38.093Z,69.43
2018-06-10T16:14:07.735Z,70.16
2018-06-10T16:16:37.400Z,70.07
2018-06-10T16:19:07.057Z,69.70
2018-06-10T16:21:39.778Z,70.14
2018-06-10T16:24:11.189Z,70.32
2018-06-10T16:26:40.799Z,68.62
2018-06-10T16:29:10.128Z,70.11
2018-06-10T16:31:40.049Z,69.31
2018-06-10T16:34:09.512Z,69.22
2018-06-10T16:36:38.979Z,68.80
2018-06-10T16:39:11.124Z,69.42
2018-06-10T16:41:40.534Z,71.54
2018-06-10T16:44:09.997Z,72.46
2018-06-10T16:46:41.396Z,71.38
2018-06-10T16:49:11.478Z,72.03
2018-06-10T16:51:41.229Z,72.19
2018-06-10T16:54:13.292Z,72.71
2018-06-10T16:56:44.657Z,72.24
2018-06-10T16:59:22.487Z,73.41
2018-06-10T17:01:52.216Z,74.41
2018-06-10T17:04:23.125Z,74.17
2018-06-10T17:06:57.163Z,73.03
2018-06-10T17:09:31.836Z,72.61
2018-06-10T17:12:02.690Z,72.48
2018-06-10T17:14:32.613Z,72.80
2018-06-10T17:17:02.177Z,72.99
2018-06-10T17:19:31.738Z,73.55
2018-06-10T17:22:01.335Z,73.22
2018-06-10T17:24:30.912Z,72.89
2018-06-10T17:27:02.338Z,72.91
2018-06-10T17:29:32.933Z,71.48
2018-06-10T17:32:06.277Z,71.01
2018-06-10T17:34:40.327Z,71.80
2018-06-10T17:37:13.869Z,71.09
2018-06-10T17:39:43.209Z,71.64
2018-06-10T17:42:12.464Z,71.13
2018-06-10T17:44:42.089Z,71.76
2018-06-10T17:47:11.378Z,71.00
2018-06-10T17:49:41.308Z,71.38
2018-06-10T17:52:11.117Z,71.16
2018-06-10T17:54:40.571Z,70.62
2018-06-10T17:57:09.971Z,69.70
2018-06-10T17:59:40.013Z,70.74
2018-06-10T18:02:09.474Z,70.74
2018-06-10T18:04:39.018Z,71.35
2018-06-10T18:07:08.408Z,70.97
2018-06-10T18:09:37.979Z,72.03
2018-06-10T18:12:07.720Z,72.00
2018-06-10T18:14:37.361Z,70.93
2018-06-10T18:17:06.979Z,70.78
2018-06-10T18:19:36.411Z,71.07
2018-06-10T18:22:06.407Z,71.50
2018-06-10T18:24:36.400Z,71.46
2018-06-10T18:27:05.938Z,72.03
2018-06-10T18:29:35.627Z,71.61
2018-06-10T18:32:05.049Z,71.63
2018-06-10T18:34:34.842Z,71.06
2018-06-10T18:37:04.239Z,72.12
2018-06-10T18:39:33.976Z,72.83
2018-06-10T18:42:03.383Z,73.53
2018-06-10T18:44:33.796Z,73.09
2018-06-10T18:47:03.486Z,73.34
2018-06-10T18:49:32.965Z,73.30
2018-06-10T18:52:02.613Z,73.62
2018-06-10T18:54:32.182Z,74.28
2018-06-10T18:57:02.274Z,75.28
2018-06-10T18:59:32.043Z,76.44
2018-06-10T19:02:01.550Z,76.43
2018-06-10T19:04:31.642Z,76.72
2018-06-10T19:07:01.140Z,77.46
2018-06-10T19:09:31.160Z,77.85
2018-06-10T19:12:00.660Z,77.44
2018-06-10T19:14:30.506Z,77.93
2018-06-10T19:17:00.293Z,78.31
2018-06-10T19:19:30.756Z,78.23
2018-06-10T19:22:01.043Z,78.67
2018-06-10T19:24:41.708Z,79.73
2018-06-10T19:27:17.989Z,79.65
2018-06-10T19:29:47.994Z,78.40
2018-06-10T19:32:33.596Z,78.21
2018-06-10T19:35:07.378Z,77.99
2018-06-10T19:37:41.608Z,77.11
2018-06-10T19:40:20.989Z,77.30
2018-06-10T19:42:56.418Z,77.89
2018-06-10T19:45:29.512Z,79.34
2018-06-10T19:48:00.410Z,78.37
2018-06-10T19:50:33.507Z,79.53
2018-06-10T19:53:07.660Z,79.27
2018-06-10T19:55:38.343Z,79.33
2018-06-10T19:58:11.239Z,79.39
2018-06-10T20:00:44.353Z,78.96
2018-06-10T20:03:17.293Z,78.73
2018-06-10T20:05:50.321Z,78.01
2018-06-10T20:08:24.913Z,77.27
2018-06-10T20:10:58.505Z,76.48
2018-06-10T20:13:33.082Z,76.30
2018-06-10T20:16:06.673Z,76.51
2018-06-10T20:18:40.283Z,75.75
2018-06-10T20:21:13.791Z,75.98
2018-06-10T20:23:47.803Z,76.43
2018-06-10T20:26:22.412Z,76.24
2018-06-10T20:28:56.515Z,76.84
2018-06-10T20:31:30.734Z,77.16
2018-06-10T20:34:00.404Z,76.88
2018-06-10T20:36:30.018Z,76.46
2018-06-10T20:38:59.594Z,76.51
2018-06-10T20:41:29.677Z,75.99
2018-06-10T20:43:59.131Z,76.99
2018-06-10T20:46:28.984Z,77.34
2018-06-10T20:48:58.946Z,77.25
2018-06-10T20:51:28.548Z,77.25
2018-06-10T20:53:59.146Z,77.14
2018-06-10T20:56:29.150Z,76.41
2018-06-10T20:58:58.675Z,76.76
2018-06-10T21:01:29.284Z,76.95
2018-06-10T21:03:59.206Z,77.23
2018-06-10T21:06:28.812Z,76.89
2018-06-10T21:08:58.656Z,77.44
2018-06-10T21:11:28.618Z,76.75
2018-06-10T21:13:58.225Z,76.53
2018-06-10T21:16:28.855Z,77.69
2018-06-10T21:18:58.542Z,76.95
2018-06-10T21:21:29.246Z,76.81
2018-06-10T21:23:58.859Z,77.02
2018-06-10T21:26:28.909Z,76.88
2018-06-10T21:28:58.687Z,77.18
2018-06-10T21:31:28.413Z,77.86
2018-06-10T21:33:58.127Z,77.71
2018-06-10T21:36:28.781Z,77.24
2018-06-10T21:38:59.459Z,76.25
2018-06-10T21:41:29.325Z,76.79
2018-06-10T21:43:59.085Z,76.17
2018-06-10T21:46:29.113Z,76.24
2018-06-10T21:48:58.881Z,76.18
2018-06-10T21:51:28.606Z,76.04
2018-06-10T21:53:58.751Z,75.62
2018-06-10T21:56:28.639Z,75.44
2018-06-10T21:59:02.753Z,75.96
2018-06-10T22:01:36.867Z,74.77
2018-06-10T22:04:10.888Z,74.74
2018-06-10T22:06:40.512Z,74.97
2018-06-10T22:09:10.307Z,74.66
2018-06-10T22:11:40.844Z,74.63
2018-06-10T22:14:10.321Z,74.97
2018-06-10T22:16:40.360Z,74.77
2018-06-10T22:19:10.391Z,74.35
2018-06-10T22:21:39.813Z,74.79
2018-06-10T22:24:09.584Z,74.97
2018-06-10T22:26:39.681Z,75.38
2018-06-10T22:29:09.117Z,75.24
2018-06-10T22:31:39.123Z,75.67
2018-06-10T22:34:08.705Z,75.68
2018-06-10T22:36:38.232Z,75.47
2018-06-10T22:39:08.613Z,75.43
2018-06-10T22:41:38.297Z,75.82
2018-06-10T22:44:07.775Z,76.18
2018-06-10T22:46:37.066Z,76.43
2018-06-10T22:49:06.714Z,76.85
2018-06-10T22:51:36.178Z,77.10
2018-06-10T22:54:17.162Z,77.76
2018-06-10T22:56:46.513Z,78.12
2018-06-10T22:59:15.757Z,78.21
2018-06-10T23:01:45.524Z,78.26
2018-06-10T23:04:14.765Z,78.42
2018-06-10T23:06:44.066Z,77.95
2018-06-10T23:09:13.668Z,77.83
2018-06-10T23:11:43.013Z,77.59
2018-06-10T23:14:12.410Z,77.66
2018-06-10T23:16:42.021Z,77.40
2018-06-10T23:19:11.372Z,77.30
2018-06-10T23:21:40.790Z,77.52
2018-06-10T23:24:10.918Z,77.88
2018-06-10T23:26:40.165Z,77.88
2018-06-10T23:29:09.485Z,78.16
2018-06-10T23:31:38.792Z,77.74
2018-06-10T23:34:08.044Z,78.14
2018-06-10T23:36:37.422Z,78.21
2018-06-10T23:39:07.355Z,78.04
2018-06-10T23:41:36.882Z,78.37
2018-06-10T23:44:06.564Z,79.03
2018-06-10T23:46:36.440Z,78.83
2018-06-10T23:49:05.862Z,78.06
2018-06-10T23:51:35.365Z,77.72
2018-06-10T23:54:04.974Z,77.65
2018-06-10T23:56:34.563Z,77.49
2018-06-10T23:59:04.064Z,77.66
